createdAt,value
2023-02-28T00:03:27.543Z,25.20
2023-02-28T00:08:30.416Z,24.80
2023-02-28T00:13:33.200Z,25.80
2023-02-28T00:18:37.378Z,23.80
2023-02-28T00:23:40.107Z,23.80
2023-02-28T00:28:42.862Z,24.40
2023-02-28T00:33:47.040Z,24.20
2023-02-28T00:38:51.043Z,26.00
2023-02-28T00:43:53.871Z,25.40
2023-02-28T00:48:58.202Z,25.80
2023-02-28T00:54:00.923Z,22.80
2023-02-28T00:59:03.686Z,25.00
2023-02-28T01:04:07.836Z,23.00
2023-02-28T01:09:12.314Z,24.60
2023-02-28T01:14:15.981Z,26.20
2023-02-28T01:19:20.426Z,23.00
2023-02-28T01:24:23.183Z,24.00
2023-02-28T01:29:26.039Z,23.40
2023-02-28T01:34:30.636Z,22.00
2023-02-28T01:39:33.361Z,19.80
2023-02-28T01:44:59.720Z,22.00
2023-02-28T01:50:06.475Z,24.80
2023-02-28T01:55:09.718Z,21.00
2023-02-28T02:00:15.280Z,20.40
2023-02-28T02:05:24.711Z,21.60
2023-02-28T02:10:31.370Z,18.40
2023-02-28T02:15:36.048Z,20.00
2023-02-28T02:21:19.208Z,21.40
2023-02-28T02:26:47.891Z,19.80
2023-02-28T02:31:57.159Z,19.20
2023-02-28T02:37:07.973Z,19.80
2023-02-28T02:42:14.257Z,23.00
2023-02-28T02:47:19.570Z,20.60
2023-02-28T02:52:25.498Z,17.40
2023-02-28T02:57:31.557Z,17.20
2023-02-28T03:02:35.182Z,20.80
2023-02-28T03:07:42.432Z,17.20
2023-02-28T03:12:50.494Z,20.20
2023-02-28T03:18:03.253Z,17.60
2023-02-28T03:23:15.691Z,19.20
2023-02-28T03:28:20.920Z,17.40
2023-02-28T03:33:25.527Z,19.00
2023-02-28T03:38:32.011Z,18.00
2023-02-28T03:43:37.320Z,18.80
2023-02-28T03:48:41.514Z,16.40
2023-02-28T03:53:46.774Z,17.60
2023-02-28T03:58:51.432Z,16.00
2023-02-28T04:03:54.293Z,15.80
2023-02-28T04:08:58.609Z,16.00
2023-02-28T04:14:01.339Z,17.80
2023-02-28T04:19:06.533Z,19.20
2023-02-28T04:24:15.117Z,18.80
2023-02-28T04:29:20.957Z,13.00
2023-02-28T04:34:24.509Z,16.00
2023-02-28T04:39:28.775Z,14.60
2023-02-28T04:44:32.442Z,13.00
2023-02-28T04:49:35.404Z,13.00
2023-02-28T04:54:40.890Z,12.20
2023-02-28T04:59:43.682Z,10.00
2023-02-28T05:04:46.474Z,12.00
2023-02-28T05:09:50.799Z,9.60
2023-02-28T05:14:53.534Z,9.00
2023-02-28T05:20:06.499Z,10.20
2023-02-28T05:25:19.311Z,9.80
2023-02-28T05:30:22.443Z,12.00
2023-02-28T05:35:25.244Z,9.80
2023-02-28T05:40:29.400Z,12.40
2023-02-28T05:45:32.213Z,6.80
2023-02-28T05:50:35.040Z,10.80
2023-02-28T05:55:39.150Z,10.20
2023-02-28T06:00:42.476Z,9.40
2023-02-28T06:05:45.661Z,10.20
2023-02-28T06:10:50.057Z,11.80
2023-02-28T06:15:52.851Z,9.00
2023-02-28T06:20:56.412Z,9.00
2023-02-28T06:26:00.529Z,7.40
2023-02-28T06:31:08.529Z,9.00
2023-02-28T06:36:11.481Z,8.00
2023-02-28T06:41:15.591Z,9.00
2023-02-28T06:46:18.912Z,8.00
2023-02-28T06:51:23.201Z,9.00
2023-02-28T06:56:27.463Z,8.00
2023-02-28T07:01:30.521Z,8.60
2023-02-28T07:06:33.682Z,8.00
2023-02-28T07:11:37.978Z,6.40
2023-02-28T07:16:40.796Z,8.00
2023-02-28T07:21:43.754Z,9.00
2023-02-28T07:26:48.012Z,10.60
2023-02-28T07:31:51.736Z,6.80
2023-02-28T07:36:55.553Z,7.80
2023-02-28T07:42:00.635Z,8.00
2023-02-28T07:47:03.539Z,6.80
2023-02-28T07:52:07.181Z,8.20
2023-02-28T07:57:11.402Z,6.40
2023-02-28T08:02:14.754Z,11.80
2023-02-28T08:07:17.993Z,13.60
2023-02-28T08:12:22.179Z,15.40
2023-02-28T08:17:24.963Z,12.60
2023-02-28T08:22:27.748Z,12.60
2023-02-28T08:27:31.897Z,12.20
2023-02-28T08:32:34.838Z,10.20
2023-02-28T08:37:37.791Z,11.00
2023-02-28T08:42:41.991Z,12.00
2023-02-28T08:47:44.783Z,9.80
2023-02-28T08:52:47.715Z,11.00
2023-02-28T08:57:51.972Z,11.60
2023-02-28T09:02:55.666Z,9.00
2023-02-28T09:07:58.654Z,11.40
2023-02-28T09:13:02.806Z,10.80
2023-02-28T09:18:05.798Z,9.20
2023-02-28T09:23:08.583Z,8.60
2023-02-28T09:28:13.259Z,8.60
2023-02-28T09:33:16.118Z,7.60
2023-02-28T09:38:19.300Z,8.40
2023-02-28T09:43:24.754Z,8.00
2023-02-28T09:48:30.327Z,8.00
2023-02-28T09:53:35.142Z,9.00
2023-02-28T09:58:42.940Z,8.80
2023-02-28T10:03:47.716Z,8.00
2023-02-28T10:08:54.282Z,7.20
2023-02-28T10:14:02.515Z,7.20
2023-02-28T10:19:06.546Z,7.20
2023-02-28T10:24:16.846Z,8.00
2023-02-28T10:29:21.002Z,6.40
2023-02-28T10:34:24.154Z,6.40
2023-02-28T10:39:37.313Z,9.20
2023-02-28T10:44:41.829Z,6.40
2023-02-28T10:49:49.052Z,6.00
2023-02-28T10:54:51.819Z,6.00
2023-02-28T11:00:10.344Z,5.80
2023-02-28T11:05:30.346Z,6.80
2023-02-28T11:10:35.507Z,7.20
2023-02-28T11:15:39.819Z,5.20
2023-02-28T11:20:42.608Z,7.60
2023-02-28T11:25:49.635Z,5.00
2023-02-28T11:31:02.839Z,6.20
2023-02-28T11:36:10.266Z,7.80
2023-02-28T11:41:41.221Z,5.60
2023-02-28T11:46:47.289Z,7.80
2023-02-28T11:51:53.118Z,7.80
2023-02-28T11:56:57.112Z,5.60
2023-02-28T12:02:08.252Z,6.00
2023-02-28T12:07:13.745Z,6.00
2023-02-28T12:12:30.059Z,7.40
2023-02-28T12:17:40.828Z,6.00
2023-02-28T12:22:45.741Z,5.00
2023-02-28T12:27:49.147Z,6.60
2023-02-28T12:32:55.018Z,6.60
2023-02-28T12:37:59.430Z,6.00
2023-02-28T12:43:04.318Z,6.00
2023-02-28T12:48:11.221Z,5.20
2023-02-28T12:53:17.250Z,5.00
2023-02-28T12:58:22.826Z,6.00
2023-02-28T13:04:01.328Z,5.00
2023-02-28T13:09:10.532Z,5.60
2023-02-28T13:14:21.559Z,6.00
2023-02-28T13:19:26.196Z,5.60
2023-02-28T13:24:41.106Z,5.00
2023-02-28T13:29:45.344Z,7.20
2023-02-28T13:35:40.254Z,5.00
2023-02-28T13:40:43.180Z,5.80
2023-02-28T13:46:13.892Z,5.40
2023-02-28T13:51:42.506Z,66.00
2023-02-28T13:56:47.776Z,88.75
2023-02-28T14:01:59.201Z,60.50
2023-02-28T14:07:03.324Z,65.50
2023-02-28T14:12:43.698Z,58.25
2023-02-28T14:17:46.532Z,79.00
2023-02-28T14:22:55.249Z,250.75
2023-02-28T14:28:03.406Z,253.50
2023-02-28T14:33:28.360Z,217.00
2023-02-28T14:38:34.308Z,155.67
2023-02-28T14:43:37.654Z,133.25
2023-02-28T14:48:40.426Z,130.75
2023-02-28T14:53:44.738Z,111.25
2023-02-28T14:58:53.359Z,109.25
2023-02-28T15:04:02.256Z,101.00
2023-02-28T15:09:18.234Z,97.50
2023-02-28T15:14:22.125Z,38.75
2023-02-28T15:19:26.288Z,28.75
2023-02-28T15:24:35.675Z,28.75
2023-02-28T15:29:45.119Z,30.50
2023-02-28T15:34:48.210Z,27.00
2023-02-28T15:39:52.318Z,26.00
2023-02-28T15:44:55.231Z,24.40
2023-02-28T15:49:59.956Z,26.50
2023-02-28T15:55:10.746Z,27.40
2023-02-28T16:00:14.922Z,27.00
2023-02-28T16:05:28.928Z,30.00
2023-02-28T16:10:33.212Z,27.50
2023-02-28T16:15:42.434Z,28.20
2023-02-28T16:20:45.664Z,24.80
2023-02-28T16:25:50.070Z,26.60
2023-02-28T16:30:53.477Z,25.60
2023-02-28T16:35:56.323Z,24.80
2023-02-28T16:41:01.374Z,23.40
2023-02-28T16:46:04.711Z,24.00
2023-02-28T16:51:07.681Z,23.20
2023-02-28T16:56:16.674Z,21.40
2023-02-28T17:01:22.560Z,21.80
2023-02-28T17:06:28.885Z,21.80
2023-02-28T17:11:33.693Z,18.40
2023-02-28T17:16:37.852Z,22.80
2023-02-28T17:21:42.746Z,20.40
2023-02-28T17:26:47.188Z,22.80
2023-02-28T17:31:50.128Z,20.60
2023-02-28T17:36:53.171Z,20.40
2023-02-28T17:41:57.338Z,21.80
2023-02-28T17:47:00.786Z,18.80
2023-02-28T17:52:03.571Z,19.20
2023-02-28T17:57:07.741Z,22.60
2023-02-28T18:02:11.053Z,20.00
2023-02-28T18:07:13.972Z,18.80
2023-02-28T18:12:18.304Z,20.60
2023-02-28T18:17:21.638Z,19.20
2023-02-28T18:22:24.472Z,19.80
2023-02-28T18:27:28.738Z,20.20
2023-02-28T18:32:31.820Z,21.40
2023-02-28T18:37:34.665Z,22.40
2023-02-28T18:42:39.170Z,20.20
2023-02-28T18:47:42.097Z,21.40
2023-02-28T18:52:44.854Z,21.00
2023-02-28T18:57:49.283Z,21.80
2023-02-28T19:02:52.306Z,22.60
2023-02-28T19:07:55.133Z,22.20
2023-02-28T19:12:59.454Z,20.20
2023-02-28T19:18:02.388Z,18.00
2023-02-28T19:23:05.127Z,20.60
2023-02-28T19:28:09.241Z,20.20
2023-02-28T19:33:12.033Z,19.00
2023-02-28T19:38:14.844Z,21.80
2023-02-28T19:43:19.337Z,18.40
2023-02-28T19:48:25.109Z,21.00
2023-02-28T19:53:28.303Z,18.80
2023-02-28T19:58:32.625Z,20.60
2023-02-28T20:03:35.394Z,21.40
2023-02-28T20:08:38.874Z,20.40
2023-02-28T20:13:43.092Z,22.00
2023-02-28T20:18:46.054Z,19.40
2023-02-28T20:23:49.515Z,21.20
2023-02-28T20:28:53.694Z,20.20
2023-02-28T20:33:56.730Z,19.20
2023-02-28T20:39:00.434Z,19.00
2023-02-28T20:44:04.806Z,16.80
2023-02-28T20:49:07.743Z,20.60
2023-02-28T20:54:11.141Z,21.60
2023-02-28T20:59:15.284Z,19.40
2023-02-28T21:04:18.197Z,20.20
2023-02-28T21:09:21.084Z,19.00
2023-02-28T21:14:25.396Z,19.60
2023-02-28T21:19:28.193Z,18.60
2023-02-28T21:24:31.292Z,18.60
2023-02-28T21:29:35.530Z,19.40
2023-02-28T21:34:38.492Z,18.40
2023-02-28T21:39:41.747Z,20.60
2023-02-28T21:44:46.242Z,18.60
2023-02-28T21:49:49.118Z,18.40
2023-02-28T21:54:52.256Z,17.00
2023-02-28T21:59:56.400Z,18.20
2023-02-28T22:05:03.439Z,18.00
2023-02-28T22:10:06.857Z,15.80
2023-02-28T22:15:12.576Z,17.60
2023-02-28T22:20:15.434Z,17.40
2023-02-28T22:25:18.623Z,18.00
2023-02-28T22:30:22.912Z,15.20
2023-02-28T22:35:25.771Z,15.20
2023-02-28T22:40:28.703Z,17.00
2023-02-28T22:45:32.925Z,13.60
2023-02-28T22:50:35.875Z,16.60
2023-02-28T22:55:38.645Z,15.00
2023-02-28T23:00:42.769Z,16.60
2023-02-28T23:05:45.488Z,18.20
2023-02-28T23:10:48.476Z,14.60
2023-02-28T23:15:52.771Z,14.60
2023-02-28T23:20:57.557Z,14.00
2023-02-28T23:26:00.382Z,17.00
2023-02-28T23:31:04.984Z,13.80
2023-02-28T23:36:11.088Z,14.40
2023-02-28T23:41:14.221Z,14.00
2023-02-28T23:46:18.386Z,12.40
2023-02-28T23:51:21.831Z,14.00
2023-02-28T23:56:25.063Z,15.20
